createdAt,value
2023-05-07T03:00:49.501Z,51.52
2023-05-07T03:03:41.860Z,51.63
2023-05-07T03:06:14.269Z,51.53
2023-05-07T03:08:42.513Z,51.45
2023-05-07T03:11:11.648Z,51.77
2023-05-07T03:13:40.789Z,51.55
2023-05-07T03:16:09.601Z,51.74
2023-05-07T03:18:38.521Z,51.80
2023-05-07T03:21:07.757Z,51.86
2023-05-07T03:23:36.836Z,51.71
2023-05-07T03:26:06.221Z,51.77
2023-05-07T03:28:35.104Z,51.98
2023-05-07T03:31:06.748Z,51.84
2023-05-07T03:33:36.326Z,52.11
2023-05-07T03:36:06.223Z,51.90
2023-05-07T03:38:35.180Z,51.66
2023-05-07T03:41:03.566Z,51.71
2023-05-07T03:43:33.512Z,51.78
2023-05-07T03:46:07.231Z,52.11
2023-05-07T03:48:35.523Z,52.07
2023-05-07T03:51:04.813Z,52.09
2023-05-07T03:53:35.125Z,52.46
2023-05-07T03:56:03.497Z,52.38
2023-05-07T03:58:35.104Z,52.30
2023-05-07T04:01:08.797Z,52.41
2023-05-07T04:03:37.402Z,52.33
2023-05-07T04:06:07.057Z,52.29
2023-05-07T04:08:36.891Z,52.28
2023-05-07T04:11:06.407Z,52.34
2023-05-07T04:13:35.457Z,52.32
2023-05-07T04:16:06.585Z,52.12
2023-05-07T04:18:36.786Z,52.08
2023-05-07T04:21:06.637Z,52.07
2023-05-07T04:23:35.822Z,51.89
2023-05-07T04:26:05.442Z,51.64
2023-05-07T04:28:42.835Z,51.00
2023-05-07T04:31:11.443Z,50.70
2023-05-07T04:33:41.031Z,50.45
2023-05-07T04:36:12.092Z,50.20
2023-05-07T04:38:47.229Z,50.14
2023-05-07T04:41:16.424Z,49.82
2023-05-07T04:43:45.144Z,49.50
2023-05-07T04:46:15.313Z,49.18
2023-05-07T04:48:44.593Z,48.75
2023-05-07T04:51:13.465Z,48.72
2023-05-07T04:53:42.243Z,48.52
2023-05-07T04:56:10.902Z,48.27
2023-05-07T04:58:44.829Z,47.92
2023-05-07T05:01:13.852Z,47.71
2023-05-07T05:03:42.905Z,47.55
2023-05-07T05:06:11.956Z,47.09
2023-05-07T05:08:41.141Z,47.14
2023-05-07T05:11:11.549Z,46.88
2023-05-07T05:13:40.252Z,46.50
2023-05-07T05:16:15.142Z,46.48
2023-05-07T05:18:43.581Z,46.36
2023-05-07T05:21:13.016Z,45.90
2023-05-07T05:23:42.327Z,46.32
2023-05-07T05:26:11.235Z,46.20
2023-05-07T05:28:40.566Z,45.69
2023-05-07T05:31:09.551Z,45.48
2023-05-07T05:33:38.249Z,45.00
2023-05-07T05:36:07.902Z,44.94
2023-05-07T05:38:37.132Z,44.84
2023-05-07T05:41:05.998Z,44.23
2023-05-07T05:43:35.096Z,43.99
2023-05-07T05:46:05.659Z,43.76
2023-05-07T05:48:34.533Z,43.40
2023-05-07T05:51:03.576Z,43.22
2023-05-07T05:53:32.014Z,42.88
2023-05-07T05:56:01.696Z,42.88
2023-05-07T05:58:31.561Z,42.52
2023-05-07T06:01:04.855Z,42.16
2023-05-07T06:03:33.857Z,42.19
2023-05-07T06:06:05.148Z,42.34
2023-05-07T06:08:34.301Z,42.91
2023-05-07T06:11:04.559Z,42.82
2023-05-07T06:13:35.313Z,42.50
2023-05-07T06:16:03.631Z,42.82
2023-05-07T06:18:32.504Z,42.78
2023-05-07T06:21:01.448Z,42.65
2023-05-07T06:23:33.682Z,42.79
2023-05-07T06:26:03.402Z,42.89
2023-05-07T06:28:37.240Z,42.74
2023-05-07T06:31:15.374Z,42.78
2023-05-07T06:33:47.121Z,42.92
2023-05-07T06:36:18.071Z,42.86
2023-05-07T06:38:47.434Z,42.98
2023-05-07T06:41:17.373Z,42.77
2023-05-07T06:43:46.704Z,42.79
2023-05-07T06:46:33.327Z,42.86
2023-05-07T06:49:02.253Z,42.86
2023-05-07T06:51:32.286Z,42.85
2023-05-07T06:54:06.200Z,42.27
2023-05-07T06:56:35.834Z,42.41
2023-05-07T06:59:05.379Z,42.81
2023-05-07T07:01:39.063Z,42.95
2023-05-07T07:04:08.867Z,42.67
2023-05-07T07:06:39.432Z,42.45
2023-05-07T07:09:12.149Z,42.46
2023-05-07T07:11:41.372Z,42.12
2023-05-07T07:14:10.756Z,42.25
2023-05-07T07:16:43.861Z,42.18
2023-05-07T07:19:13.433Z,42.18
2023-05-07T07:21:43.364Z,42.29
2023-05-07T07:24:15.165Z,42.50
2023-05-07T07:26:44.653Z,42.28
2023-05-07T07:29:13.929Z,42.23
2023-05-07T07:31:44.504Z,42.55
2023-05-07T07:34:14.039Z,41.86
2023-05-07T07:36:46.748Z,41.78
2023-05-07T07:39:20.415Z,42.09
2023-05-07T07:41:52.370Z,41.82
2023-05-07T07:44:22.746Z,41.76
2023-05-07T07:46:56.553Z,41.70
2023-05-07T07:49:27.247Z,41.79
2023-05-07T07:51:58.395Z,41.72
2023-05-07T07:54:28.497Z,41.70
2023-05-07T07:56:58.367Z,41.52
2023-05-07T07:59:27.503Z,41.37
2023-05-07T08:01:58.442Z,41.38
2023-05-07T08:04:28.747Z,41.49
2023-05-07T08:06:59.373Z,41.37
2023-05-07T08:09:28.348Z,41.22
2023-05-07T08:12:00.681Z,41.33
2023-05-07T08:14:30.115Z,41.42
2023-05-07T08:16:59.264Z,41.27
2023-05-07T08:19:27.939Z,41.13
2023-05-07T08:21:57.252Z,41.12
2023-05-07T08:24:26.903Z,41.14
2023-05-07T08:26:56.361Z,41.18
2023-05-07T08:29:24.774Z,41.45
2023-05-07T08:31:53.427Z,40.91
2023-05-07T08:34:22.742Z,40.94
2023-05-07T08:36:52.468Z,41.22
2023-05-07T08:39:22.488Z,41.06
2023-05-07T08:41:56.641Z,41.26
2023-05-07T08:44:29.014Z,40.90
2023-05-07T08:46:58.062Z,41.13
2023-05-07T08:49:27.763Z,40.83
2023-05-07T08:51:57.008Z,40.63
2023-05-07T08:54:26.297Z,40.82
2023-05-07T08:56:54.837Z,40.65
2023-05-07T08:59:23.350Z,40.67
2023-05-07T09:01:51.670Z,40.52
2023-05-07T09:04:20.637Z,40.56
2023-05-07T09:06:49.358Z,40.50
2023-05-07T09:09:20.049Z,40.23
2023-05-07T09:11:48.393Z,40.24
2023-05-07T09:14:17.954Z,40.23
2023-05-07T09:16:47.728Z,40.01
2023-05-07T09:19:16.176Z,40.13
2023-05-07T09:21:46.796Z,40.02
2023-05-07T09:24:16.702Z,40.14
2023-05-07T09:26:45.803Z,39.85
2023-05-07T09:29:17.044Z,39.98
2023-05-07T09:31:46.739Z,40.05
2023-05-07T09:34:17.385Z,40.01
2023-05-07T09:36:47.348Z,39.73
2023-05-07T09:39:16.211Z,39.85
2023-05-07T09:41:50.550Z,39.75
2023-05-07T09:44:25.644Z,39.46
2023-05-07T09:46:55.682Z,39.56
2023-05-07T09:49:31.908Z,39.61
2023-05-07T09:52:07.912Z,39.47
2023-05-07T09:54:39.153Z,39.03
2023-05-07T09:57:08.920Z,39.31
2023-05-07T09:59:39.017Z,39.29
2023-05-07T10:02:11.496Z,39.41
2023-05-07T10:04:47.789Z,39.22
2023-05-07T10:07:18.006Z,39.19
2023-05-07T10:09:49.065Z,39.03
2023-05-07T10:12:27.830Z,38.85
2023-05-07T10:14:57.870Z,38.85
2023-05-07T10:17:27.087Z,38.68
2023-05-07T10:19:56.158Z,38.82
2023-05-07T10:22:29.254Z,38.86
2023-05-07T10:25:01.304Z,38.85
2023-05-07T10:27:30.732Z,38.82
2023-05-07T10:30:09.334Z,38.46
2023-05-07T10:32:42.007Z,38.41
2023-05-07T10:35:28.510Z,38.35
2023-05-07T10:37:57.484Z,38.37
2023-05-07T10:40:27.209Z,38.40
2023-05-07T10:43:04.610Z,38.34
2023-05-07T10:45:37.144Z,38.31
2023-05-07T10:48:27.981Z,38.29
2023-05-07T10:51:21.360Z,38.40
2023-05-07T10:54:10.217Z,38.45
2023-05-07T10:56:39.542Z,38.50
2023-05-07T10:59:25.222Z,38.21
2023-05-07T11:01:56.494Z,38.07
2023-05-07T11:04:45.888Z,38.13
2023-05-07T11:07:26.345Z,38.07
2023-05-07T11:10:02.692Z,37.90
2023-05-07T11:13:04.008Z,37.45
2023-05-07T11:15:45.843Z,37.58
2023-05-07T11:18:26.077Z,37.58
2023-05-07T11:20:56.216Z,37.57
2023-05-07T11:23:57.900Z,37.88
2023-05-07T11:26:32.584Z,37.69
2023-05-07T11:29:01.974Z,37.48
2023-05-07T11:31:31.376Z,37.62
2023-05-07T11:34:03.239Z,37.54
2023-05-07T11:36:33.582Z,37.61
2023-05-07T11:39:03.365Z,37.49
2023-05-07T11:41:41.162Z,37.43
2023-05-07T11:44:10.459Z,37.21
2023-05-07T11:46:44.516Z,37.16
2023-05-07T11:49:13.598Z,37.08
2023-05-07T11:51:43.616Z,37.04
2023-05-07T11:54:15.762Z,37.03
2023-05-07T11:56:45.332Z,37.04
2023-05-07T11:59:13.710Z,37.01
2023-05-07T12:01:42.051Z,37.06
2023-05-07T12:04:11.536Z,36.94
2023-05-07T12:06:41.811Z,36.92
2023-05-07T12:09:13.422Z,36.87
2023-05-07T12:11:47.723Z,36.53
2023-05-07T12:14:19.442Z,36.60
2023-05-07T12:16:48.764Z,36.57
2023-05-07T12:19:17.953Z,36.68
2023-05-07T12:21:46.889Z,36.41
2023-05-07T12:24:21.955Z,36.38
2023-05-07T12:26:51.272Z,36.60
2023-05-07T12:29:22.563Z,36.48
2023-05-07T12:31:51.476Z,36.39
2023-05-07T12:34:20.692Z,36.41
2023-05-07T12:36:49.843Z,36.25
2023-05-07T12:39:18.659Z,36.18
2023-05-07T12:41:57.215Z,36.13
2023-05-07T12:44:26.424Z,36.03
2023-05-07T12:46:55.009Z,35.82
2023-05-07T12:49:25.260Z,36.04
2023-05-07T12:51:55.190Z,36.04
2023-05-07T12:54:34.597Z,36.09
2023-05-07T12:57:04.038Z,35.94
2023-05-07T12:59:36.745Z,35.86
2023-05-07T13:02:06.649Z,35.91
2023-05-07T13:04:36.180Z,35.72
2023-05-07T13:07:05.732Z,35.63
2023-05-07T13:09:35.054Z,35.60
2023-05-07T13:12:05.055Z,35.79
2023-05-07T13:14:35.172Z,35.81
2023-05-07T13:17:04.069Z,35.66
2023-05-07T13:19:34.108Z,35.42
2023-05-07T13:22:02.530Z,35.55
2023-05-07T13:24:31.169Z,35.64
2023-05-07T13:27:00.227Z,35.48
2023-05-07T13:29:32.523Z,35.30
2023-05-07T13:32:02.011Z,35.60
2023-05-07T13:34:30.574Z,35.27
2023-05-07T13:36:58.926Z,35.27
2023-05-07T13:39:27.556Z,35.32
2023-05-07T13:41:55.902Z,35.32
2023-05-07T13:44:24.485Z,35.46
2023-05-07T13:46:52.700Z,35.44
2023-05-07T13:49:22.690Z,35.20
2023-05-07T13:51:52.443Z,35.30
2023-05-07T13:54:21.145Z,35.14
2023-05-07T13:56:50.379Z,35.11
2023-05-07T13:59:19.732Z,35.24
2023-05-07T14:01:48.635Z,35.06
2023-05-07T14:04:17.557Z,35.00
2023-05-07T14:06:46.734Z,34.99
2023-05-07T14:09:15.373Z,34.99
2023-05-07T14:11:44.654Z,34.82
2023-05-07T14:14:13.593Z,34.81
2023-05-07T14:16:41.881Z,34.67
2023-05-07T14:19:11.174Z,34.53
2023-05-07T14:21:39.861Z,34.53
2023-05-07T14:24:10.235Z,34.54
2023-05-07T14:26:38.649Z,34.67
2023-05-07T14:29:07.592Z,34.56
2023-05-07T14:31:36.461Z,34.57
2023-05-07T14:34:05.575Z,34.60
2023-05-07T14:36:34.404Z,34.48
2023-05-07T14:39:03.070Z,34.37
2023-05-07T14:41:33.311Z,34.34
2023-05-07T14:44:02.260Z,34.33
2023-05-07T14:46:31.594Z,34.37
2023-05-07T14:48:59.926Z,34.36
2023-05-07T14:51:29.409Z,34.26
2023-05-07T14:53:57.810Z,34.35
2023-05-07T14:56:26.268Z,34.27
2023-05-07T14:58:54.992Z,34.24
2023-05-07T15:01:23.896Z,34.13
2023-05-07T15:03:53.186Z,34.18
2023-05-07T15:06:22.675Z,34.11
2023-05-07T15:08:50.904Z,34.21
2023-05-07T15:11:19.851Z,34.14
2023-05-07T15:13:48.157Z,34.06
2023-05-07T15:16:17.223Z,34.26
2023-05-07T15:18:46.113Z,34.06
2023-05-07T15:21:15.460Z,34.14
2023-05-07T15:23:45.616Z,34.11
2023-05-07T15:26:14.515Z,34.33
2023-05-07T15:28:45.494Z,34.17
2023-05-07T15:31:14.713Z,34.26
2023-05-07T15:33:43.861Z,34.05
2023-05-07T15:36:12.977Z,33.97
2023-05-07T15:38:41.853Z,34.04
2023-05-07T15:41:11.147Z,33.97
2023-05-07T15:43:51.776Z,33.80
2023-05-07T15:46:21.752Z,33.80
2023-05-07T15:48:50.865Z,33.77
2023-05-07T15:51:21.370Z,33.68
2023-05-07T15:53:50.954Z,33.46
2023-05-07T15:56:20.578Z,33.44
2023-05-07T15:58:50.211Z,33.72
2023-05-07T16:01:19.859Z,33.64
2023-05-07T16:03:49.071Z,33.65
2023-05-07T16:06:18.257Z,33.62
2023-05-07T16:08:47.510Z,33.66
2023-05-07T16:11:15.982Z,33.58
2023-05-07T16:13:44.169Z,33.53
2023-05-07T16:16:13.366Z,33.61
2023-05-07T16:18:41.590Z,33.55
2023-05-07T16:21:09.721Z,33.72
2023-05-07T16:23:38.133Z,33.56
2023-05-07T16:26:06.442Z,33.55
2023-05-07T16:28:34.992Z,33.64
2023-05-07T16:31:03.782Z,33.54
2023-05-07T16:33:31.895Z,33.67
2023-05-07T16:36:00.221Z,33.55
2023-05-07T16:38:31.226Z,33.55
2023-05-07T16:40:59.804Z,33.43
2023-05-07T16:43:28.220Z,33.52
2023-05-07T16:45:56.608Z,33.49
2023-05-07T16:48:25.787Z,33.59
2023-05-07T16:50:54.058Z,33.54
2023-05-07T16:53:22.052Z,33.37
2023-05-07T16:55:50.213Z,33.58
2023-05-07T16:58:18.349Z,33.65
2023-05-07T17:00:50.496Z,33.52
2023-05-07T17:03:19.716Z,33.55
2023-05-07T17:05:48.187Z,33.54
2023-05-07T17:08:16.359Z,33.38
2023-05-07T17:10:45.869Z,33.43
2023-05-07T17:13:14.280Z,33.34
2023-05-07T17:15:43.976Z,33.58
2023-05-07T17:18:12.244Z,33.52
2023-05-07T17:20:41.591Z,33.72
2023-05-07T17:23:13.991Z,33.57
2023-05-07T17:25:45.718Z,33.61
2023-05-07T17:28:14.099Z,33.34
2023-05-07T17:30:42.667Z,33.65
2023-05-07T17:33:21.006Z,33.55
2023-05-07T17:35:53.322Z,33.57
2023-05-07T17:38:21.538Z,33.54
2023-05-07T17:40:49.943Z,33.54
2023-05-07T17:43:18.416Z,33.43
2023-05-07T17:45:48.538Z,33.48
2023-05-07T17:48:17.732Z,33.58
2023-05-07T17:50:46.156Z,33.53
2023-05-07T17:53:14.361Z,33.47
2023-05-07T17:55:43.955Z,33.58
2023-05-07T17:58:12.365Z,33.48
2023-05-07T18:00:40.838Z,33.64
2023-05-07T18:03:09.211Z,33.71
2023-05-07T18:05:38.095Z,33.67
2023-05-07T18:08:06.992Z,33.63
2023-05-07T18:10:35.279Z,33.60
2023-05-07T18:13:04.234Z,33.75
2023-05-07T18:15:33.140Z,33.79
2023-05-07T18:18:01.504Z,33.62
2023-05-07T18:20:30.313Z,33.79
2023-05-07T18:22:58.984Z,33.77
2023-05-07T18:25:27.606Z,33.94
2023-05-07T18:27:56.288Z,33.96
2023-05-07T18:30:24.563Z,33.85
2023-05-07T18:32:52.774Z,34.10
2023-05-07T18:35:20.970Z,34.20
2023-05-07T18:37:49.159Z,34.29
2023-05-07T18:40:18.051Z,34.33
2023-05-07T18:42:46.330Z,34.37
2023-05-07T18:45:14.752Z,34.45
2023-05-07T18:47:44.177Z,34.54
2023-05-07T18:50:14.011Z,34.64
2023-05-07T18:52:42.480Z,34.67
2023-05-07T18:55:11.988Z,34.78
2023-05-07T18:57:42.180Z,34.92
2023-05-07T19:00:14.325Z,34.98
2023-05-07T19:02:45.464Z,35.09
2023-05-07T19:05:13.657Z,35.31
2023-05-07T19:07:41.950Z,35.25
2023-05-07T19:10:10.193Z,35.33
2023-05-07T19:12:38.337Z,35.36
2023-05-07T19:15:06.750Z,35.52
2023-05-07T19:17:35.893Z,35.85
2023-05-07T19:20:04.963Z,35.97
2023-05-07T19:22:33.166Z,35.99
2023-05-07T19:25:01.972Z,36.22
2023-05-07T19:27:35.338Z,36.33
2023-05-07T19:30:06.651Z,36.31
2023-05-07T19:32:35.004Z,36.43
2023-05-07T19:35:03.241Z,36.30
2023-05-07T19:37:31.505Z,36.23
2023-05-07T19:40:05.149Z,36.22
2023-05-07T19:42:33.413Z,36.00
2023-05-07T19:45:01.541Z,36.24
2023-05-07T19:47:29.735Z,36.21
2023-05-07T19:49:57.875Z,36.05
2023-05-07T19:52:26.533Z,36.21
2023-05-07T19:54:55.011Z,36.27
2023-05-07T19:57:23.251Z,36.29
2023-05-07T19:59:51.366Z,36.30
2023-05-07T20:02:19.717Z,36.48
2023-05-07T20:04:47.963Z,36.42
2023-05-07T20:07:16.131Z,36.44
2023-05-07T20:09:44.333Z,36.68
2023-05-07T20:12:12.502Z,36.49
2023-05-07T20:14:40.796Z,36.74
2023-05-07T20:17:09.012Z,36.59
2023-05-07T20:19:37.686Z,36.89
2023-05-07T20:22:06.052Z,36.96
2023-05-07T20:24:39.152Z,37.27
2023-05-07T20:27:08.044Z,37.48
2023-05-07T20:29:36.990Z,37.71
2023-05-07T20:32:05.428Z,37.69
2023-05-07T20:34:33.561Z,37.88
2023-05-07T20:37:03.189Z,38.04
2023-05-07T20:39:31.965Z,37.96
2023-05-07T20:42:00.126Z,38.37
2023-05-07T20:44:30.929Z,38.11
2023-05-07T20:46:59.598Z,38.46
2023-05-07T20:49:28.411Z,38.75
2023-05-07T20:51:57.607Z,38.62
2023-05-07T20:54:28.495Z,38.93
2023-05-07T20:56:58.173Z,39.16
2023-05-07T20:59:27.203Z,39.10
2023-05-07T21:01:56.969Z,39.53
2023-05-07T21:04:26.187Z,39.55
2023-05-07T21:06:54.396Z,39.54
2023-05-07T21:09:22.904Z,39.58
2023-05-07T21:11:51.219Z,39.50
2023-05-07T21:14:20.278Z,39.74
2023-05-07T21:16:49.713Z,39.79
2023-05-07T21:19:19.179Z,40.07
2023-05-07T21:21:47.665Z,40.15
2023-05-07T21:24:16.286Z,40.19
2023-05-07T21:26:44.744Z,40.29
2023-05-07T21:29:13.598Z,40.26
2023-05-07T21:31:42.465Z,40.52
2023-05-07T21:34:11.912Z,40.55
2023-05-07T21:36:40.514Z,40.42
2023-05-07T21:39:09.191Z,40.69
2023-05-07T21:41:37.998Z,40.55
2023-05-07T21:44:06.827Z,40.43
2023-05-07T21:46:35.575Z,40.63
2023-05-07T21:49:04.565Z,40.35
2023-05-07T21:51:35.033Z,40.50
2023-05-07T21:54:03.424Z,40.48
2023-05-07T21:56:31.481Z,40.55
2023-05-07T21:58:59.690Z,40.68
2023-05-07T22:01:28.127Z,40.73
2023-05-07T22:03:56.609Z,40.66
2023-05-07T22:06:25.638Z,40.67
2023-05-07T22:08:54.666Z,40.94
2023-05-07T22:11:23.285Z,41.06
2023-05-07T22:13:51.827Z,41.06
2023-05-07T22:16:20.477Z,41.06
2023-05-07T22:18:50.056Z,41.06
2023-05-07T22:21:18.692Z,41.23
2023-05-07T22:23:46.947Z,41.08
2023-05-07T22:26:15.506Z,41.28
2023-05-07T22:28:44.103Z,41.41
2023-05-07T22:31:12.609Z,41.58
2023-05-07T22:33:41.288Z,41.59
2023-05-07T22:36:09.546Z,41.56
2023-05-07T22:38:37.908Z,41.71
2023-05-07T22:41:06.358Z,41.57
2023-05-07T22:43:34.602Z,42.01
2023-05-07T22:46:03.367Z,41.94
2023-05-07T22:48:32.897Z,42.19
2023-05-07T22:51:01.218Z,42.13
2023-05-07T22:53:29.506Z,42.33
2023-05-07T22:55:57.996Z,42.41
2023-05-07T22:58:26.353Z,42.30
2023-05-07T23:00:54.853Z,42.35
2023-05-07T23:03:23.897Z,42.19
2023-05-07T23:05:55.888Z,42.48
2023-05-07T23:08:24.538Z,42.63
2023-05-07T23:10:53.039Z,42.55
2023-05-07T23:13:21.400Z,42.77
2023-05-07T23:15:51.071Z,43.02
2023-05-07T23:18:19.931Z,43.16
2023-05-07T23:20:48.748Z,43.31
2023-05-07T23:23:18.338Z,43.34
2023-05-07T23:25:47.464Z,43.35
2023-05-07T23:28:16.942Z,43.36
2023-05-07T23:30:46.528Z,43.32
2023-05-07T23:33:15.456Z,43.33
2023-05-07T23:35:47.070Z,43.45
2023-05-07T23:38:16.023Z,43.52
2023-05-07T23:40:44.889Z,43.61
2023-05-07T23:43:13.835Z,43.78
2023-05-07T23:45:42.996Z,43.73
2023-05-07T23:48:12.194Z,43.75
2023-05-07T23:50:41.033Z,43.89
2023-05-07T23:53:10.659Z,43.66
2023-05-07T23:55:39.546Z,43.84
2023-05-07T23:58:08.303Z,43.82
